Time;durP1;ratioP1;P1;durP2;ratioP2;P2;SDS_P1;SDS_P2;PMS_P1;PMS_P2;Temp;Humidity;BMP_temperature;BMP_pressure;BME280_temperature;BME280_humidity;BME280_pressure;Samples;Min_cycle;Max_cycle;Signal;HPM_P1;HPM_P2
2022/07/19 00:00:48;;;;;;;3.75;2.25;;;;;;;22.89;35.89;100937.47;20352794;28;98455;-72
2022/07/19 00:10:51;;;;;;;6.97;2.75;;;;;;;22.73;36.57;100935.13;20361444;28;97766;-72
2022/07/19 00:20:53;;;;;;;6.90;2.53;;;;;;;22.62;36.67;100946.50;20362674;28;97754;-72
2022/07/19 00:30:56;;;;;;;3.85;2.28;;;;;;;22.54;37.06;100936.53;20381514;28;96985;-71
2022/07/19 00:40:57;;;;;;;5.80;2.42;;;;;;;22.47;37.06;100937.94;20366010;28;96984;-72
2022/07/19 00:51:02;;;;;;;5.43;2.50;;;;;;;22.29;37.79;100940.09;20373521;28;96937;-72
2022/07/19 01:01:05;;;;;;;4.25;2.25;;;;;;;22.23;37.70;100940.56;20415838;28;96862;-72
2022/07/19 01:11:06;;;;;;;4.87;2.40;;;;;;;22.04;37.78;100938.41;20448692;28;97667;-72
2022/07/19 01:21:15;;;;;;;6.35;2.38;;;;;;;22.12;37.96;100935.19;20417938;28;96953;-72
2022/07/19 01:31:15;;;;;;;3.55;2.05;;;;;;;21.96;37.97;100931.06;20423267;28;97607;-72
2022/07/19 01:41:16;;;;;;;6.18;1.98;;;;;;;21.78;38.04;100925.31;20440337;28;97821;-71
2022/07/19 01:51:16;;;;;;;6.35;2.28;;;;;;;21.83;37.96;100923.16;20453486;28;96848;-72
2022/07/19 02:01:17;;;;;;;3.00;2.17;;;;;;;21.68;38.01;100924.25;20441289;28;98033;-72
2022/07/19 02:11:35;;;;;;;7.72;2.20;;;;;;;21.58;38.52;100930.19;20436128;28;96971;-72
2022/07/19 02:21:38;;;;;;;5.03;1.90;;;;;;;21.46;38.93;100932.81;20446734;28;97845;-72
2022/07/19 02:31:40;;;;;;;9.15;2.38;;;;;;;21.38;39.48;100938.63;20434812;28;98510;-71
2022/07/19 02:41:44;;;;;;;10.57;2.28;;;;;;;21.32;39.21;100945.16;20457263;28;97089;-73
2022/07/19 02:51:45;;;;;;;7.75;2.28;;;;;;;21.29;39.09;100942.75;20421322;28;98592;-72
2022/07/19 03:01:48;;;;;;;3.78;1.73;;;;;;;21.17;39.15;100948.88;20388314;28;97717;-72
2022/07/19 03:11:53;;;;;;;6.18;1.80;;;;;;;21.23;38.86;100957.16;20454291;28;98450;-71
2022/07/19 03:21:54;;;;;;;4.57;1.50;;;;;;;21.01;39.48;100952.53;20455337;28;100480;-71
2022/07/19 03:32:05;;;;;;;7.90;1.85;;;;;;;20.87;39.80;100968.41;20437964;28;97016;-72
2022/07/19 03:42:06;;;;;;;4.97;1.88;;;;;;;20.83;40.05;100973.03;20438465;28;96980;-71
2022/07/19 03:52:07;;;;;;;8.05;4.50;;;;;;;20.85;40.38;100978.19;20434683;28;97651;-71
2022/07/19 04:02:07;;;;;;;8.50;1.88;;;;;;;20.90;40.23;100991.91;20458144;28;98819;-72
2022/07/19 04:12:07;;;;;;;10.45;2.13;;;;;;;20.84;40.48;101001.03;20496121;28;97564;-74
2022/07/19 04:22:08;;;;;;;8.40;2.15;;;;;;;20.84;40.06;101001.03;20469718;28;96789;-75
2022/07/19 04:32:16;;;;;;;9.07;2.10;;;;;;;20.99;39.88;101012.34;20467223;28;96882;-75
2022/07/19 04:42:23;;;;;;;6.68;1.92;;;;;;;21.04;40.00;101004.13;20468663;28;96699;-74
2022/07/19 04:52:24;;;;;;;6.45;1.95;;;;;;;21.03;40.27;100997.19;20417913;28;96657;-75
2022/07/19 05:02:24;;;;;;;3.95;1.50;;;;;;;21.19;39.49;101004.88;20368011;28;96716;-75
2022/07/19 05:12:25;;;;;;;7.93;1.60;;;;;;;21.20;39.38;101012.72;20423010;28;96958;-72
2022/07/19 05:22:25;;;;;;;5.85;1.80;;;;;;;21.40;38.96;101010.50;20396592;28;96808;-73
2022/07/19 05:32:40;;;;;;;6.28;1.58;;;;;;;21.50;37.96;100990.47;20408838;28;96877;-77
2022/07/19 05:42:41;;;;;;;4.82;1.60;;;;;;;21.63;38.06;100992.28;20412229;28;97813;-79
2022/07/19 05:52:41;;;;;;;5.80;1.60;;;;;;;21.77;37.55;100999.22;20449069;28;96774;-77
2022/07/19 06:02:47;;;;;;;5.68;1.52;;;;;;;21.94;37.52;100992.78;20416032;28;96848;-76
2022/07/19 06:12:48;;;;;;;6.25;1.67;;;;;;;22.07;37.07;100994.41;20422025;28;97392;-77
2022/07/19 06:22:48;;;;;;;5.70;1.90;;;;;;;22.22;36.56;100997.72;20425421;28;96947;-77
2022/07/19 06:32:56;;;;;;;6.57;2.90;;;;;;;22.35;35.56;101000.34;20486793;28;97235;-77
2022/07/19 06:42:56;;;;;;;27.05;16.25;;;;;;;22.58;35.56;100995.19;20486864;28;96838;-77
2022/07/19 06:52:56;;;;;;;12.10;6.80;;;;;;;22.73;34.26;100995.88;20485628;28;96552;-77
2022/07/19 07:02:57;;;;;;;7.80;2.60;;;;;;;22.91;33.41;100979.59;20491604;28;96934;-78
2022/07/19 07:12:58;;;;;;;8.55;2.53;;;;;;;23.05;33.02;100973.28;20456301;28;96746;-77
2022/07/19 07:23:11;;;;;;;11.30;2.00;;;;;;;23.23;32.39;100965.75;20413378;28;96863;-78
2022/07/19 07:33:18;;;;;;;7.68;2.10;;;;;;;23.39;33.20;100968.91;20406633;28;96992;-80
2022/07/19 07:43:19;;;;;;;16.85;5.65;;;;;;;23.57;32.57;100963.13;20416166;28;96915;-77
2022/07/19 07:53:19;;;;;;;9.02;3.70;;;;;;;23.72;32.23;100958.44;20399139;28;96898;-79
2022/07/19 08:03:19;;;;;;;11.95;2.47;;;;;;;23.87;32.45;100953.72;20408919;28;96792;-79
2022/07/19 08:13:21;;;;;;;6.47;2.00;;;;;;;23.94;32.62;100957.59;20435860;28;96815;-80
2022/07/19 08:23:21;;;;;;;5.63;1.87;;;;;;;24.05;31.84;100949.63;20371150;28;98749;-81
2022/07/19 08:33:22;;;;;;;4.30;1.30;;;;;;;24.16;31.04;100953.19;20377269;28;97288;-80
2022/07/19 08:43:26;;;;;;;3.63;1.30;;;;;;;24.27;30.61;100943.41;20385242;28;96907;-83
2022/07/19 08:53:33;;;;;;;9.50;1.30;;;;;;;24.36;30.09;100931.22;20349311;28;97147;-81
2022/07/19 09:03:33;;;;;;;5.10;1.30;;;;;;;24.49;29.97;100940.84;20394195;28;97688;-79
2022/07/19 09:13:35;;;;;;;8.40;1.58;;;;;;;24.59;30.51;100928.50;20443502;28;97167;-79
2022/07/19 09:23:40;;;;;;;3.47;1.05;;;;;;;24.70;29.49;100927.63;20441518;28;97160;-81
2022/07/19 09:33:46;;;;;;;2.10;1.45;;;;;;;24.79;29.30;100903.00;20432117;28;96900;-80
2022/07/19 09:43:52;;;;;;;2.25;1.20;;;;;;;24.90;29.13;100908.25;20361184;28;96636;-80
2022/07/19 09:53:53;;;;;;;3.13;1.13;;;;;;;25.05;28.64;100898.13;20347275;28;97825;-80
2022/07/19 10:03:56;;;;;;;3.23;1.00;;;;;;;25.45;27.79;100899.16;20348825;28;96954;-81
2022/07/19 10:13:57;;;;;;;2.20;1.27;;;;;;;25.47;28.24;100891.91;20338056;28;98374;-81
2022/07/19 10:24:00;;;;;;;3.70;1.30;;;;;;;25.50;28.54;100881.03;20332807;28;97426;-80
2022/07/19 10:34:03;;;;;;;2.47;0.90;;;;;;;25.69;28.19;100882.06;20354874;28;96896;-82
2022/07/19 10:44:08;;;;;;;1.42;0.80;;;;;;;25.88;27.66;100868.81;20349658;28;97866;-82
2022/07/19 10:54:12;;;;;;;2.67;0.90;;;;;;;25.98;27.71;100865.34;20346221;28;98707;-79
2022/07/19 11:04:28;;;;;;;1.60;1.08;;;;;;;26.09;27.94;100853.78;20346997;28;98238;-82
2022/07/19 11:14:30;;;;;;;4.32;1.20;;;;;;;26.22;27.91;100835.75;20344649;28;97770;-81
2022/07/19 11:24:31;;;;;;;45.38;18.45;;;;;;;26.25;28.91;100837.28;20317970;28;97388;-83
2022/07/19 11:34:32;;;;;;;18.00;7.90;;;;;;;26.24;28.99;100817.84;20335979;28;97736;-83
2022/07/19 11:44:37;;;;;;;10.97;2.83;;;;;;;26.30;28.18;100806.66;20337862;28;97858;-82
2022/07/19 11:54:39;;;;;;;1.48;1.30;;;;;;;26.33;28.42;100785.16;20344452;28;97230;-83
2022/07/19 12:04:40;;;;;;;2.78;1.23;;;;;;;26.42;28.48;100787.94;20336053;28;97870;-82
2022/07/19 12:14:41;;;;;;;1.77;1.20;;;;;;;26.48;28.45;100777.56;20331625;28;98938;-83
2022/07/19 12:24:45;;;;;;;;;;;;;;;26.53;28.52;100766.50;20358815;28;99473;-80
2022/07/19 12:34:56;;;;;;;8.75;1.38;;;;;;;26.62;28.54;100757.69;20390137;28;97868;-81
2022/07/19 12:44:57;;;;;;;3.65;1.13;;;;;;;26.78;27.57;100769.50;20420529;28;98045;-79
2022/07/19 12:54:59;;;;;;;1.83;1.05;;;;;;;26.91;27.34;100755.88;20411645;28;99425;-79
2022/07/19 13:05:00;;;;;;;5.22;1.38;;;;;;;27.06;28.08;100743.78;20432477;28;96928;-79
2022/07/19 13:15:00;;;;;;;2.00;1.00;;;;;;;27.07;27.97;100734.81;20418762;28;97562;-80
2022/07/19 13:25:06;;;;;;;3.05;1.35;;;;;;;27.20;27.67;100731.78;20432611;28;97981;-79
2022/07/19 13:35:07;;;;;;;4.82;1.10;;;;;;;27.33;27.41;100716.31;20432854;28;97472;-82
2022/07/19 13:45:08;;;;;;;;;;;;;;;27.45;26.98;100708.97;20433050;28;97246;-82
2022/07/19 13:55:10;;;;;;;6.03;1.20;;;;;;;27.53;27.23;100694.91;20428866;28;97116;-88
2022/07/19 14:05:10;;;;;;;3.67;1.13;;;;;;;27.60;27.31;100687.13;20438689;28;98954;-88
2022/07/19 14:15:11;;;;;;;8.00;1.95;;;;;;;27.63;27.55;100673.53;20407815;28;100358;-88
2022/07/19 14:25:11;;;;;;;1.73;1.30;;;;;;;27.66;27.34;100659.06;20449955;28;97392;-87
2022/07/19 14:35:16;;;;;;;8.95;3.60;;;;;;;27.68;27.01;100651.78;20452896;28;98672;-84
2022/07/19 14:45:16;;;;;;;8.30;2.67;;;;;;;27.73;27.09;100649.47;20501116;28;97572;-84
2022/07/19 14:55:17;;;;;;;21.70;6.28;;;;;;;27.77;26.95;100657.00;20455963;28;97131;-79
2022/07/19 15:05:17;;;;;;;15.37;2.30;;;;;;;27.83;26.88;100641.41;20449263;28;97951;-81
2022/07/19 15:15:19;;;;;;;8.23;1.40;;;;;;;27.88;27.69;100628.44;20363384;28;97151;-82
2022/07/19 15:25:21;;;;;;;3.30;1.33;;;;;;;27.94;27.41;100634.00;20354890;28;99816;-82
2022/07/19 15:35:23;;;;;;;2.63;1.30;;;;;;;27.99;27.25;100614.03;20393877;28;97826;-81
2022/07/19 15:45:24;;;;;;;4.97;1.58;;;;;;;28.05;26.83;100608.97;20389906;28;96935;-81
2022/07/19 15:55:25;;;;;;;5.97;1.60;;;;;;;28.04;26.72;100596.59;20404592;28;96488;-82
2022/07/19 16:05:25;;;;;;;;;;;;;;;28.04;26.67;100596.59;20346492;28;97349;-82
2022/07/19 16:15:32;;;;;;;2.20;1.23;;;;;;;28.04;26.28;100595.75;20356301;28;98827;-81
2022/07/19 16:25:33;;;;;;;1.73;1.20;;;;;;;28.04;28.07;100599.28;20359656;28;98693;-81
2022/07/19 16:35:43;;;;;;;3.65;1.38;;;;;;;28.03;27.70;100596.78;20396930;28;97578;-81
2022/07/19 16:45:44;;;;;;;8.90;1.70;;;;;;;28.00;28.17;100584.59;20432652;28;97725;-85
2022/07/19 16:55:44;;;;;;;;;;;;;;;27.98;28.26;100581.28;20435182;28;97951;-85
2022/07/19 17:05:45;;;;;;;3.53;1.48;;;;;;;27.94;28.36;100586.09;20435965;28;100527;-88
2022/07/19 17:15:46;;;;;;;8.23;1.52;;;;;;;27.90;29.60;100583.88;20346474;28;100929;-85
2022/07/19 17:25:46;;;;;;;2.33;1.48;;;;;;;27.92;27.74;100587.25;20364853;28;96867;-80
2022/07/19 17:35:47;;;;;;;38.10;5.35;;;;;;;27.91;29.57;100593.53;20328406;28;98345;-79
2022/07/19 17:45:49;;;;;;;;;;;;;;;27.93;29.85;100602.22;20388704;28;100503;-81
2022/07/19 17:55:50;;;;;;;28.27;11.00;;;;;;;27.88;30.14;100605.34;20485374;28;99580;-87
2022/07/19 18:05:50;;;;;;;14.97;5.83;;;;;;;27.85;29.91;100603.00;20381870;28;98503;-86
2022/07/19 18:15:53;;;;;;;13.68;4.70;;;;;;;27.80;29.92;100608.78;20376699;28;97850;-86
2022/07/19 18:25:55;;;;;;;3.60;1.50;;;;;;;27.82;27.28;100613.97;20367444;28;97634;-85
2022/07/19 18:35:56;;;;;;;5.60;1.60;;;;;;;27.78;27.08;100623.22;20351753;28;97738;-80
2022/07/19 18:45:56;;;;;;;3.33;1.43;;;;;;;27.75;27.66;100635.03;20417854;28;99081;-81
2022/07/19 18:55:57;;;;;;;5.22;2.67;;;;;;;27.70;27.33;100640.00;20381523;28;97841;-82
2022/07/19 19:05:57;;;;;;;4.90;2.17;;;;;;;27.64;28.00;100649.41;20348305;28;98625;-78
2022/07/19 19:15:59;;;;;;;8.10;1.80;;;;;;;27.60;27.86;100660.53;20343460;28;97372;-78
2022/07/19 19:26:00;;;;;;;4.35;1.85;;;;;;;27.53;27.84;100670.13;20260044;28;97613;-76
2022/07/19 19:36:00;;;;;;;8.63;1.77;;;;;;;27.45;28.13;100678.88;20292012;28;97261;-75
2022/07/19 19:46:01;;;;;;;8.68;2.05;;;;;;;27.36;28.39;100685.09;20274222;28;100674;-75
2022/07/19 19:56:01;;;;;;;7.05;2.35;;;;;;;27.26;28.96;100696.63;20301984;28;99353;-76
2022/07/19 20:06:03;;;;;;;4.40;2.30;;;;;;;27.22;28.52;100705.91;20374897;28;98552;-76
2022/07/19 20:16:04;;;;;;;9.52;3.00;;;;;;;27.17;28.65;100705.50;20370163;28;97253;-75
2022/07/19 20:26:05;;;;;;;7.77;2.80;;;;;;;27.08;28.70;100709.06;20366786;28;97609;-75
2022/07/19 20:36:06;;;;;;;8.20;3.80;;;;;;;27.00;29.06;100710.66;20373517;28;98442;-76
2022/07/19 20:46:08;;;;;;;10.13;2.53;;;;;;;26.90;29.75;100712.53;20372918;28;99186;-75
2022/07/19 20:56:08;;;;;;;6.45;3.00;;;;;;;26.78;30.10;100711.91;20367356;28;97940;-75
2022/07/19 21:06:09;;;;;;;5.68;3.00;;;;;;;26.64;30.45;100717.69;20338624;28;97566;-75
2022/07/19 21:16:09;;;;;;;4.25;2.78;;;;;;;26.52;31.07;100714.38;20382869;28;97106;-77
2022/07/19 21:26:10;;;;;;;6.80;2.90;;;;;;;26.43;31.51;100718.75;20362353;28;97586;-77
2022/07/19 21:36:10;;;;;;;7.07;2.90;;;;;;;26.34;31.86;100715.16;20358230;28;101306;-77
2022/07/19 21:46:11;;;;;;;5.60;3.33;;;;;;;26.26;32.34;100728.31;20376479;28;97852;-74
2022/07/19 21:56:12;;;;;;;9.50;5.65;;;;;;;26.17;32.83;100723.84;20364226;28;99564;-75
2022/07/19 22:06:13;;;;;;;6.90;3.90;;;;;;;26.10;32.92;100730.69;20366470;28;97294;-74
2022/07/19 22:16:15;;;;;;;9.53;4.40;;;;;;;26.01;33.30;100724.41;20363325;28;99600;-74
2022/07/19 22:26:16;;;;;;;;;;;;;;;25.94;33.67;100728.63;20353230;28;97416;-73
2022/07/19 22:36:17;;;;;;;7.93;3.43;;;;;;;25.85;33.98;100735.59;20345762;28;100673;-73
2022/07/19 22:46:17;;;;;;;6.15;3.42;;;;;;;25.74;34.52;100736.59;20375053;28;99138;-73
2022/07/19 22:56:18;;;;;;;12.48;4.07;;;;;;;25.50;35.29;100734.34;20372295;28;101086;-74
2022/07/19 23:06:18;;;;;;;8.52;3.67;;;;;;;25.32;35.81;100737.69;20364204;28;98170;-73
2022/07/19 23:16:20;;;;;;;10.43;4.15;;;;;;;25.31;35.95;100743.13;20355869;28;97405;-74
2022/07/19 23:26:20;;;;;;;11.63;3.90;;;;;;;25.16;36.70;100735.56;20355840;28;101092;-74
2022/07/19 23:36:20;;;;;;;10.93;3.97;;;;;;;25.12;36.68;100742.13;20369121;28;97864;-75
2022/07/19 23:46:21;;;;;;;7.25;3.58;;;;;;;24.85;37.14;100740.94;20348729;28;98933;-74
2022/07/19 23:56:22;;;;;;;13.85;4.00;;;;;;;24.96;37.21;100750.56;20344218;28;99223;-75
